EW1631 Weather Reports


Display with metric or nautical units.
time (UTC)temp
F
wind
direction
speed
MPH
gust
MPH
rain 1hr
in
rain 24hr
in
rain mn
in
humidity
%
barometer
mb
20200124131516 59 305 0.0 2.0 0.00 0.00 0.00 43 1013.5
20200124130114 60 303 2.0 7.0 0.00 0.00 0.00 42 1013.5
20200124124558 60 302 2.0 7.0 0.00 0.00 0.00 42 1013.5
20200124123017 58 305 4.0 7.0 0.00 0.00 0.00 45 1013.5
20200124121521 57 309 1.0 3.0 0.00 0.00 0.00 47 1013.5
20200124120041 60 308 3.0 7.0 0.00 0.00 0.00 44 1013.5
20200124114527 59 308 3.0 7.0 0.00 0.00 0.00 44 1013.4
20200124113107 59 311 2.0 5.0 0.00 0.00 0.00 44 1013.4
20200124111537 58 313 4.0 7.0 0.00 0.00 0.00 46 1013.5
20200124110041 56 319 1.0 3.0 0.00 0.00 0.00 49 1013.6
20200124104624 56 319 1.0 3.0 0.00 0.00 0.00 49 1013.6
20200124103122 57 319 0.0 0.0 0.00 0.00 0.00 49 1013.7
20200124101621 57 319 1.0 3.0 0.00 0.00 0.00 48 1013.7
20200124094620 58 319 0.0 3.0 0.00 0.00 0.00 45 1014.1
20200124093155 59 319 0.0 0.0 0.00 0.00 0.00 44 1014.0
20200124090159 59 319 1.0 5.0 0.00 0.00 0.00 42 1014.2
20200124084624 59 316 0.0 5.0 0.00 0.00 0.00 42 1014.2
20200124083114 59 318 1.0 4.0 0.00 0.00 0.00 42 1014.3
20200124081556 59 320 1.0 3.0 0.00 0.00 0.00 42 1014.4
20200124080105 59 316 3.0 6.0 0.00 0.00 0.00 42 1014.7
20200124074626 59 316 3.0 6.0 0.00 0.00 0.00 42 1014.7
20200124073158 59 309 0.0 2.0 0.00 0.00 0.00 42 1014.7
20200124071648 60 309 0.0 0.0 0.00 0.00 0.00 41 1014.8
20200124070137 61 309 3.0 7.0 0.00 0.00 0.00 40 1014.9
20200124064750 61 309 2.0 7.0 0.00 0.00 0.00 40 1014.9
20200124063256 61 316 4.0 7.0 0.00 0.00 0.00 40 1014.9
20200124061726 61 321 2.0 8.0 0.00 0.00 0.00 40 1014.9
20200124054508 59 331 2.0 4.0 0.00 0.00 0.00 44 1015.0
20200124053024 59 333 0.0 0.0 0.00 0.00 0.00 45 1015.0
20200124051520 61 333 0.0 0.0 0.00 0.00 0.00 43 1014.9
20200124044520 61 307 3.0 6.0 0.00 0.00 0.00 40 1014.7
20200124043026 61 304 2.0 5.0 0.00 0.00 0.00 42 1014.7
20200124041520 61 302 2.0 5.0 0.00 0.00 0.00 42 1014.6
20200124034616 59 269 2.0 5.0 0.00 0.00 0.00 46 1014.4
20200124033028 60 240 0.0 1.0 0.00 0.00 0.00 48 1014.4
20200124031536 61 240 1.0 3.0 0.00 0.00 0.00 47 1014.3
20200124024710 61 214 2.0 5.0 0.00 0.00 0.00 44 1014.0
20200124023044 63 196 0.0 2.0 0.00 0.00 0.00 44 1013.9
20200124021608 64 194 0.0 4.0 0.00 0.00 0.00 41 1013.8
20200124014541 67 151 0.0 1.0 0.00 0.00 0.00 37 1013.7
20200124013058 70 150 0.0 2.0 0.00 0.00 0.00 34 1013.7
20200124011611 72 150 0.0 0.0 0.00 0.00 0.00 31 1013.7
20200124004705 75 150 0.0 0.0 0.00 0.00 0.00 28 1013.9
20200124003210 75 150 0.0 0.0 0.00 0.00 0.00 27 1013.8
20200124001716 76 150 1.0 2.0 0.00 0.00 0.00 26 1013.8
20200123234626 77 150 1.0 4.0 0.00 0.00 0.00 26 1013.8
20200123233109 77 151 3.0 5.0 0.00 0.00 0.00 25 1014.0
20200123231717 77 160 2.0 5.0 0.00 0.00 0.00 25 1014.1
20200123224510 78 163 2.0 6.0 0.00 0.00 0.00 26 1014.3
20200123223005 77 160 3.0 6.0 0.00 0.00 0.00 26 1014.5
20200123221501 77 179 2.0 5.0 0.00 0.00 0.00 27 1014.7
20200123214535 76 98 2.0 6.0 0.00 0.00 0.00 27 1015.0
20200123213029 76 147 2.0 8.0 0.00 0.00 0.00 28 1015.2
20200123211557 74 85 2.0 5.0 0.00 0.00 0.00 28 1015.5
20200123204752 74 156 4.0 6.0 0.00 0.00 0.00 30 1016.1
20200123203221 73 88 2.0 6.0 0.00 0.00 0.00 30 1016.6
20200123201614 73 51 2.0 6.0 0.00 0.00 0.00 29 1017.0
20200123194739 73 127 3.0 9.0 0.00 0.00 0.00 30 1017.7
20200123193216 72 105 5.0 7.0 0.00 0.00 0.00 32 1018.0
20200123191726 72 107 4.0 8.0 0.00 0.00 0.00 35 1018.4
20200123190124 70 114 2.0 5.0 0.00 0.00 0.00 39 1019.0
20200123183225 70 138 2.0 6.0 0.00 0.00 0.00 40 1019.2
20200123181651 68 20 1.0 4.0 0.00 0.00 0.00 41 1019.3
20200123180202 64 6 0.0 3.0 0.00 0.00 0.00 45 1019.6
20200123174551 64 6 0.0 3.0 0.00 0.00 0.00 45 1019.6
20200123173039 62 6 0.0 4.0 0.00 0.00 0.00 49 1019.6
20200123171528 61 6 2.0 4.0 0.00 0.00 0.00 51 1019.5
20200123163214 56 340 0.0 2.0 0.00 0.00 0.00 61 1019.5
20200123161626 55 339 0.0 0.0 0.00 0.00 0.00 64 1019.5
20200123154544 53 339 0.0 0.0 0.00 0.00 0.00 65 1019.2
20200123153047 52 336 0.0 3.0 0.00 0.00 0.00 64 1019.2
20200123151604 52 330 0.0 1.0 0.00 0.00 0.00 65 1019.1
20200123150208 52 330 0.0 2.0 0.00 0.00 0.00 64 1019.0
20200123144644 52 330 0.0 2.0 0.00 0.00 0.00 64 1019.1
20200123143153 51 330 0.0 5.0 0.00 0.00 0.00 66 1019.0
20200123140209 50 15 1.0 3.0 0.00 0.00 0.00 66 1018.7
20200123134639 51 15 1.0 6.0 0.00 0.00 0.00 64 1018.5
20200123133129 52 344 0.0 3.0 0.00 0.00 0.00 63 1018.4